Airfield :
LOGIN :

Register | Disclaimer

   EN    FR    IT 

 










Legend :    VFR   Marginal VFR   IFR   Intensive IFR   Very Intensive IFR
Visi :
Ceiling :
>= 8 km
>= 3000ft
5 to 8 km
1000 to 3000 ft
1500m to 5 km
500 to 1000 ft
800 to 1500m
200 to 500 ft
< 800m
< 200 ft
Symbols :   Thunderstorms  Fog  Heavy snow  Heavy precipitations  Wind > 20 kt
SIGMETs :     Misc.  Thunderstorms  Icing  Turbulence  Mountain Waves  Volcanic Ashes






- Airport Elevation : 137 ft


LIPS - Istrana AFB Treviso

CURRENT METAR :
  • 262155Z /////KT 3500 BR BKN025 07/07 Q1018 RMK BKN VIS MIN 3500 WIND THR26 26003KT WIND THR08 30003KT YLO

EXPIRED METARs :
  • 262055Z /////KT 3500 BR BKN030 08/08 Q1019 RMK BKN VIS MIN 3500 WIND THR26 00000KT WIND THR08 00000KT YLO
  • 261955Z /////KT 3500 BR BKN030 09/09 Q1020 RMK BKN VIS MIN 3500 WIND THR26 00000KT WIND THR08 00000KT YLO

TAF TAF LIPS
Valid from the 26 at 21:00 until the 27 at 06:00 UTC


262000Z 2621/2706 VRB03KT 3000 BKN030
TEMPO 2622/2706 1500 BR BKN015
PROB40
TEMPO 2623/2706 0800 FG BKN005



MET'MAP, your aeronautical weather chart ! - Copyright ORBIFLY December 2007 - Disclaimer

ORBIFLY MET'MAP TEAM :

Programming & Development : Alexandra Zaïnal
Concept & original design : Baudouin d'Aumeries
Assistance for programming : Marc-Olivier Méhu
Technical & hardware support : Manuel Goepfert

Contact : metmap@orbifly.com




SOURCES & CREDITS :

   NOAA